Alice International Airport Alice US
ICAO: KALI
IATA: ALI
Category: Medium
Scheduled Services: No

Elevation: 178 ft
TransAlt. 18000 ft.

Airport Communications:
KINGSVILLE APP:119.9
ASOS:119.225
KINGSVILLE DEP:119.9
SAN ANGELO RDO:122.6
CTAF/UNICOM:123

KALI Zoom In..

Runways:

(A) RW 13 length 5997 ft width 100 ft
LOC 109.30 / hdg 128

(B) RW 17 length 4490 ft width 100 ft
LOC 109.30 / hdg 173

(C) RW 31 length 5997 ft width 100 ft
LOC 109.30 / hdg 308

(D) RW 35 length 4490 ft width 100 ft
LOC 109.30 / hdg 353

Location; KALI
Day. 21 / Time. 14.53 Zulu
* Altimeter: 29.97
* Temperature: 24° c. 75.2°f.
* Wind from: 340° Speed 05 kn.
Dewpoint: 19° c.
Visibility: 10 Statute Miles.
Clouds: Scattered 3300 ft.
Clouds: Overcast 4500 ft.

KALI 211453Z AUTO 34005KT 10SM SCT033 OVC045 24/19 A2997 RMK AO2 SLP145 T02390189 51015


Wind From 340°
Speed 05 kn.

 
 
jpsmedia.com for Web Design SOUNDCLOUD worldairports.se 2018   terms of use